createdAt,value
2019-06-15T00:00:18.316Z,20.45
2019-06-15T00:02:47.823Z,20.43
2019-06-15T00:05:17.298Z,20.43
2019-06-15T00:07:46.779Z,20.42
2019-06-15T00:10:16.497Z,20.41
2019-06-15T00:12:45.979Z,20.40
2019-06-15T00:15:15.873Z,20.39
2019-06-15T00:17:45.435Z,20.40
2019-06-15T00:20:16.028Z,20.39
2019-06-15T00:22:45.573Z,20.38
2019-06-15T00:25:15.467Z,20.38
2019-06-15T00:27:44.940Z,20.37
2019-06-15T00:30:15.236Z,20.35
2019-06-15T00:32:44.710Z,20.36
2019-06-15T00:35:14.331Z,20.35
2019-06-15T00:37:43.813Z,20.32
2019-06-15T00:40:13.760Z,20.31
2019-06-15T00:42:43.288Z,20.31
2019-06-15T00:45:12.995Z,20.29
2019-06-15T00:47:42.520Z,20.26
2019-06-15T00:50:12.832Z,20.25
2019-06-15T00:52:42.350Z,20.24
2019-06-15T00:55:12.061Z,20.22
2019-06-15T00:57:41.545Z,20.19
2019-06-15T01:00:11.544Z,20.18
2019-06-15T01:02:41.185Z,20.16
2019-06-15T01:05:12.422Z,20.13
2019-06-15T01:07:41.900Z,20.09
2019-06-15T01:10:12.666Z,20.05
2019-06-15T01:12:42.212Z,20.03
2019-06-15T01:15:12.092Z,19.99
2019-06-15T01:17:41.701Z,19.96
2019-06-15T01:20:13.297Z,19.92
2019-06-15T01:22:42.842Z,19.90
2019-06-15T01:25:13.080Z,19.89
2019-06-15T01:27:42.570Z,19.86
2019-06-15T01:30:12.880Z,19.86
2019-06-15T01:33:01.722Z,19.85
2019-06-15T01:35:31.201Z,19.86
2019-06-15T01:38:00.657Z,19.88
2019-06-15T01:40:30.212Z,19.87
2019-06-15T01:42:59.668Z,19.88
2019-06-15T01:45:29.230Z,19.88
2019-06-15T01:47:58.758Z,19.88
2019-06-15T01:50:28.282Z,19.87
2019-06-15T01:52:57.763Z,19.87
2019-06-15T01:55:27.210Z,19.87
2019-06-15T01:57:56.684Z,19.86
2019-06-15T02:00:45.774Z,19.84
2019-06-15T02:03:15.264Z,19.85
2019-06-15T02:05:44.792Z,19.86
2019-06-15T02:08:14.275Z,19.83
2019-06-15T02:10:43.803Z,19.83
2019-06-15T02:13:13.264Z,19.84
2019-06-15T02:15:42.772Z,19.82
2019-06-15T02:18:13.449Z,19.83
2019-06-15T02:20:42.889Z,19.83
2019-06-15T02:23:12.341Z,19.83
2019-06-15T02:25:41.865Z,19.82
2019-06-15T02:28:13.790Z,19.81
2019-06-15T02:30:42.551Z,19.80
2019-06-15T02:33:12.083Z,19.79
2019-06-15T02:35:42.799Z,19.78
2019-06-15T02:38:12.303Z,19.77
2019-06-15T02:40:41.956Z,19.76
2019-06-15T02:43:11.404Z,19.76
2019-06-15T02:45:40.947Z,19.76
2019-06-15T02:48:29.793Z,19.75
2019-06-15T02:50:59.312Z,19.73
2019-06-15T02:53:28.781Z,19.75
2019-06-15T02:55:58.260Z,19.74
2019-06-15T02:58:27.721Z,19.74
2019-06-15T03:01:08.611Z,19.74
2019-06-15T03:03:38.154Z,19.73
2019-06-15T03:06:07.859Z,19.72
2019-06-15T03:08:38.046Z,19.69
2019-06-15T03:11:07.577Z,19.65
2019-06-15T03:13:37.481Z,19.63
2019-06-15T03:16:07.500Z,19.59
2019-06-15T03:18:36.957Z,19.57
2019-06-15T03:21:06.503Z,19.53
2019-06-15T03:23:35.966Z,19.51
2019-06-15T03:26:06.334Z,19.49
2019-06-15T03:28:35.901Z,19.47
2019-06-15T03:31:07.251Z,19.45
2019-06-15T03:33:36.789Z,19.43
2019-06-15T03:36:06.315Z,19.42
2019-06-15T03:38:35.793Z,19.40
2019-06-15T03:41:05.424Z,19.39
2019-06-15T03:43:34.924Z,19.39
2019-06-15T03:46:04.372Z,19.40
2019-06-15T03:48:33.855Z,19.42
2019-06-15T03:51:03.314Z,19.43
2019-06-15T03:53:32.775Z,19.45
2019-06-15T03:56:02.328Z,19.46
2019-06-15T03:58:31.822Z,19.48
2019-06-15T04:01:23.765Z,19.51
2019-06-15T04:03:53.219Z,19.54
2019-06-15T04:06:42.071Z,19.57
2019-06-15T04:09:11.534Z,19.60
2019-06-15T04:11:41.018Z,19.62
2019-06-15T04:14:10.508Z,19.65
2019-06-15T04:16:40.068Z,19.66
2019-06-15T04:19:09.560Z,19.67
2019-06-15T04:21:38.995Z,19.70
2019-06-15T04:24:08.560Z,19.72
2019-06-15T04:26:38.011Z,19.74
2019-06-15T04:29:07.559Z,19.76
2019-06-15T04:31:39.874Z,19.79
2019-06-15T04:34:08.228Z,19.80
2019-06-15T04:36:37.707Z,19.81
2019-06-15T04:39:08.446Z,19.83
2019-06-15T04:41:37.908Z,19.85
2019-06-15T04:44:07.383Z,19.87
2019-06-15T04:46:36.864Z,19.91
2019-06-15T04:49:06.412Z,19.93
2019-06-15T04:51:35.880Z,19.96
2019-06-15T04:54:05.496Z,20.00
2019-06-15T04:56:35.272Z,20.02
2019-06-15T04:59:04.799Z,20.04
2019-06-15T05:01:34.294Z,20.06
2019-06-15T05:04:03.777Z,20.08
2019-06-15T05:06:38.907Z,20.11
2019-06-15T05:09:08.456Z,20.14
2019-06-15T05:11:37.953Z,20.17
2019-06-15T05:14:07.447Z,20.21
2019-06-15T05:16:36.937Z,20.23
2019-06-15T05:19:06.426Z,20.26
2019-06-15T05:21:35.879Z,20.29
2019-06-15T05:24:08.569Z,20.32
2019-06-15T05:26:36.683Z,20.35
2019-06-15T05:29:06.244Z,20.38
2019-06-15T05:31:35.719Z,20.41
2019-06-15T05:34:05.345Z,20.44
2019-06-15T05:36:34.815Z,20.46
2019-06-15T05:39:05.810Z,20.47
2019-06-15T05:41:36.102Z,20.50
2019-06-15T05:44:06.113Z,20.52
2019-06-15T05:46:35.607Z,20.54
2019-06-15T05:49:05.207Z,20.55
2019-06-15T05:51:34.689Z,20.57
2019-06-15T05:54:04.316Z,20.57
2019-06-15T05:56:33.796Z,20.57
2019-06-15T05:59:03.284Z,20.56
2019-06-15T06:01:32.743Z,20.55
2019-06-15T06:04:02.233Z,20.54
2019-06-15T06:06:51.090Z,20.55
2019-06-15T06:09:20.548Z,20.54
2019-06-15T06:11:50.018Z,20.54
2019-06-15T06:14:19.570Z,20.53
2019-06-15T06:16:49.036Z,20.52
2019-06-15T06:19:18.516Z,20.51
2019-06-15T06:21:47.998Z,20.52
2019-06-15T06:24:17.564Z,20.52
2019-06-15T06:26:47.051Z,20.50
2019-06-15T06:29:16.511Z,20.48
2019-06-15T06:31:45.989Z,20.48
2019-06-15T06:34:15.469Z,20.46
2019-06-15T06:36:45.004Z,20.46
2019-06-15T06:39:14.495Z,20.47
2019-06-15T06:41:43.963Z,20.47
2019-06-15T06:44:13.573Z,20.50
2019-06-15T06:46:43.083Z,20.52
2019-06-15T06:49:12.583Z,20.55
2019-06-15T06:51:42.137Z,20.57
2019-06-15T06:54:11.669Z,20.59
2019-06-15T06:56:41.163Z,20.62
2019-06-15T06:59:10.626Z,20.68
2019-06-15T07:01:40.174Z,20.76
2019-06-15T07:04:09.651Z,20.85
2019-06-15T07:06:39.689Z,20.95
2019-06-15T07:09:09.241Z,21.01
2019-06-15T07:11:38.779Z,21.09
2019-06-15T07:14:08.333Z,21.16
2019-06-15T07:16:37.818Z,21.24
2019-06-15T07:19:07.362Z,21.31
2019-06-15T07:21:36.923Z,21.40
2019-06-15T07:24:06.426Z,21.50
2019-06-15T07:26:35.896Z,21.59
2019-06-15T07:29:05.541Z,21.70
2019-06-15T07:31:35.036Z,21.81
2019-06-15T07:34:04.687Z,21.92
2019-06-15T07:36:34.152Z,22.04
2019-06-15T07:39:04.289Z,22.20
2019-06-15T07:41:33.791Z,22.35
2019-06-15T07:44:03.379Z,22.50
2019-06-15T07:46:32.913Z,22.64
2019-06-15T07:49:04.971Z,22.77
2019-06-15T07:51:33.699Z,22.87
2019-06-15T07:54:03.187Z,22.96
2019-06-15T07:56:32.689Z,23.03
2019-06-15T07:59:02.172Z,23.05
2019-06-15T08:01:31.657Z,23.07
2019-06-15T08:04:01.131Z,23.10
2019-06-15T08:06:30.703Z,23.11
2019-06-15T08:09:00.277Z,23.13
2019-06-15T08:11:29.762Z,23.14
2019-06-15T08:13:59.327Z,23.15
2019-06-15T08:16:28.815Z,23.16
2019-06-15T08:18:58.316Z,23.17
2019-06-15T08:21:27.763Z,23.18
2019-06-15T08:23:57.284Z,23.19
2019-06-15T08:26:26.793Z,23.19
2019-06-15T08:28:56.264Z,23.17
2019-06-15T08:31:25.837Z,23.14
2019-06-15T08:33:55.340Z,23.08
2019-06-15T08:36:24.836Z,23.00
2019-06-15T08:38:54.326Z,22.93
2019-06-15T08:41:43.132Z,22.88
2019-06-15T08:44:12.696Z,22.85
2019-06-15T08:46:42.162Z,22.85
2019-06-15T08:49:11.653Z,22.86
2019-06-15T08:51:41.400Z,22.89
2019-06-15T08:54:10.875Z,22.94
2019-06-15T08:56:40.430Z,23.04
2019-06-15T08:59:09.903Z,23.14
2019-06-15T09:01:39.530Z,23.25
2019-06-15T09:04:09.043Z,23.36
2019-06-15T09:06:38.481Z,23.45
2019-06-15T09:09:08.045Z,23.54
2019-06-15T09:11:37.601Z,23.61
2019-06-15T09:14:07.173Z,23.64
2019-06-15T09:16:36.649Z,23.64
2019-06-15T09:19:06.181Z,23.64
2019-06-15T09:21:35.686Z,23.60
2019-06-15T09:24:05.292Z,23.56
2019-06-15T09:26:34.771Z,23.46
2019-06-15T09:29:11.224Z,23.33
2019-06-15T09:31:35.564Z,23.22
2019-06-15T09:34:18.083Z,23.11
2019-06-15T09:36:36.310Z,22.97
2019-06-15T09:39:08.109Z,22.85
2019-06-15T09:41:38.629Z,22.75
2019-06-15T09:44:08.134Z,22.68
2019-06-15T09:46:37.591Z,22.62
2019-06-15T09:49:07.099Z,22.55
2019-06-15T09:51:36.642Z,22.51
2019-06-15T09:54:06.212Z,22.49
2019-06-15T09:56:35.688Z,22.51
2019-06-15T09:59:06.157Z,22.52
2019-06-15T10:01:35.733Z,22.58
2019-06-15T10:04:05.327Z,22.67
2019-06-15T10:06:34.942Z,22.80
2019-06-15T10:09:06.376Z,22.95
2019-06-15T10:11:35.959Z,23.11
2019-06-15T10:14:05.571Z,23.29
2019-06-15T10:16:54.457Z,23.46
2019-06-15T10:19:24.048Z,23.62
2019-06-15T10:21:53.490Z,23.77
2019-06-15T10:24:22.960Z,23.89
2019-06-15T10:26:52.469Z,24.03
2019-06-15T10:29:21.943Z,24.16
2019-06-15T10:31:51.427Z,24.28
2019-06-15T10:34:20.907Z,24.43
2019-06-15T10:36:50.481Z,24.55
2019-06-15T10:39:19.981Z,24.66
2019-06-15T10:41:49.550Z,24.73
2019-06-15T10:44:19.028Z,24.80
2019-06-15T10:46:48.558Z,24.83
2019-06-15T10:49:18.070Z,24.87
2019-06-15T10:51:47.544Z,24.97
2019-06-15T10:54:17.035Z,25.02
2019-06-15T10:56:46.496Z,25.04
2019-06-15T10:59:19.291Z,25.09
2019-06-15T11:01:48.858Z,25.12
2019-06-15T11:04:18.438Z,25.16
2019-06-15T11:06:47.897Z,25.21
2019-06-15T11:09:17.367Z,25.24
2019-06-15T11:11:47.110Z,25.24
2019-06-15T11:14:16.590Z,25.27
2019-06-15T11:16:46.325Z,25.31
2019-06-15T11:19:15.893Z,25.34
2019-06-15T11:21:45.439Z,25.39
2019-06-15T11:24:14.939Z,25.42
2019-06-15T11:26:44.573Z,25.44
2019-06-15T11:29:14.134Z,25.47
2019-06-15T11:31:44.235Z,25.49
2019-06-15T11:34:13.734Z,25.51
2019-06-15T11:36:43.273Z,25.51
2019-06-15T11:39:12.786Z,25.53
2019-06-15T11:41:42.825Z,25.53
2019-06-15T11:44:12.291Z,25.51
2019-06-15T11:46:41.927Z,25.51
2019-06-15T11:49:11.406Z,25.48
2019-06-15T11:51:40.917Z,25.47
2019-06-15T11:54:10.387Z,25.48
2019-06-15T11:56:39.858Z,25.49
2019-06-15T11:59:09.359Z,25.48
2019-06-15T12:01:38.904Z,25.45
2019-06-15T12:04:08.565Z,25.44
2019-06-15T12:06:38.092Z,25.40
2019-06-15T12:09:08.800Z,25.34
2019-06-15T12:11:38.321Z,25.26
2019-06-15T12:14:27.176Z,25.16
2019-06-15T12:16:56.617Z,25.06
2019-06-15T12:19:26.123Z,24.95
2019-06-15T12:21:55.597Z,24.89
2019-06-15T12:24:25.069Z,24.85
2019-06-15T12:26:54.556Z,24.84
2019-06-15T12:29:24.041Z,24.86
2019-06-15T12:31:53.587Z,24.90
2019-06-15T12:34:23.054Z,24.98
2019-06-15T12:36:52.701Z,25.05
2019-06-15T12:39:22.256Z,25.10
2019-06-15T12:41:51.753Z,25.18
2019-06-15T12:44:21.316Z,25.26
2019-06-15T12:46:50.779Z,25.36
2019-06-15T12:49:20.264Z,25.48
2019-06-15T12:51:49.715Z,25.59
2019-06-15T12:54:19.213Z,25.71
2019-06-15T12:56:48.662Z,25.86
2019-06-15T12:59:18.136Z,26.02
2019-06-15T13:01:47.614Z,26.14
2019-06-15T13:04:17.093Z,26.18
2019-06-15T13:06:46.591Z,26.21
2019-06-15T13:09:16.067Z,26.20
2019-06-15T13:11:45.579Z,26.16
2019-06-15T13:14:15.054Z,26.08
2019-06-15T13:16:47.321Z,26.04
2019-06-15T13:19:15.762Z,25.99
2019-06-15T13:21:45.427Z,25.95
2019-06-15T13:24:14.849Z,25.91
2019-06-15T13:26:44.341Z,25.93
2019-06-15T13:29:13.818Z,25.95
2019-06-15T13:31:43.277Z,25.98
2019-06-15T13:34:12.781Z,26.00
2019-06-15T13:36:42.239Z,26.00
2019-06-15T13:39:12.006Z,25.99
2019-06-15T13:41:41.468Z,26.01
2019-06-15T13:44:10.977Z,26.06
2019-06-15T13:46:41.484Z,26.13
2019-06-15T13:49:10.963Z,26.24
2019-06-15T13:51:40.451Z,26.39
2019-06-15T13:54:09.917Z,26.50
2019-06-15T13:56:39.394Z,26.60
2019-06-15T13:59:08.908Z,26.67
2019-06-15T14:01:38.386Z,26.70
2019-06-15T14:04:07.905Z,26.71
2019-06-15T14:06:37.386Z,26.67
2019-06-15T14:09:08.304Z,26.60
2019-06-15T14:11:37.786Z,26.52
2019-06-15T14:14:07.283Z,26.46
2019-06-15T14:16:36.768Z,26.44
2019-06-15T14:19:06.334Z,26.42
2019-06-15T14:21:35.882Z,26.41
2019-06-15T14:24:05.433Z,26.37
2019-06-15T14:26:34.955Z,26.29
2019-06-15T14:29:04.472Z,26.19
2019-06-15T14:31:46.699Z,26.13
2019-06-15T14:34:05.332Z,26.10
2019-06-15T14:36:34.869Z,26.10
2019-06-15T14:39:05.813Z,26.05
2019-06-15T14:41:35.439Z,26.04
2019-06-15T14:44:05.338Z,26.04
2019-06-15T14:46:34.931Z,26.06
2019-06-15T14:49:04.498Z,26.02
2019-06-15T14:51:33.939Z,26.14
2019-06-15T14:54:03.471Z,26.19
2019-06-15T14:56:32.964Z,26.24
2019-06-15T14:59:02.447Z,26.32
2019-06-15T15:01:34.846Z,26.40
2019-06-15T15:04:03.294Z,26.48
2019-06-15T15:06:32.760Z,26.57
2019-06-15T15:09:02.257Z,26.64
2019-06-15T15:11:51.181Z,26.68
2019-06-15T15:14:20.655Z,26.70
2019-06-15T15:16:50.127Z,26.73
2019-06-15T15:19:19.742Z,26.77
2019-06-15T15:21:49.185Z,26.81
2019-06-15T15:24:18.669Z,26.87
2019-06-15T15:26:48.134Z,26.94
2019-06-15T15:29:17.716Z,26.97
2019-06-15T15:31:47.271Z,26.98
2019-06-15T15:34:17.374Z,26.96
2019-06-15T15:36:47.186Z,26.93
2019-06-15T15:39:16.887Z,26.93
2019-06-15T15:41:46.985Z,26.95
2019-06-15T15:44:16.916Z,26.96
2019-06-15T15:46:46.461Z,26.94
2019-06-15T15:49:16.413Z,26.94
2019-06-15T15:51:47.294Z,26.93
2019-06-15T15:54:16.913Z,26.96
2019-06-15T15:56:46.826Z,26.98
2019-06-15T15:59:16.540Z,27.03
2019-06-15T16:01:46.338Z,27.07
2019-06-15T16:04:17.074Z,27.14
2019-06-15T16:06:46.927Z,27.36
2019-06-15T16:09:17.018Z,27.76
2019-06-15T16:11:46.841Z,28.22
2019-06-15T16:14:16.611Z,28.65
2019-06-15T16:16:46.823Z,29.13
2019-06-15T16:19:17.239Z,29.65
2019-06-15T16:21:47.264Z,30.19
2019-06-15T16:24:16.918Z,30.71
2019-06-15T16:26:46.854Z,31.15
2019-06-15T16:29:17.029Z,31.52
2019-06-15T16:31:46.499Z,31.86
2019-06-15T16:34:16.275Z,32.13
2019-06-15T16:36:47.031Z,32.41
2019-06-15T16:39:16.905Z,32.70
2019-06-15T16:41:47.133Z,33.06
2019-06-15T16:44:17.437Z,33.44
2019-06-15T16:46:47.049Z,33.78
2019-06-15T16:49:20.494Z,34.08
2019-06-15T16:51:47.776Z,34.34
2019-06-15T16:54:17.229Z,34.60
2019-06-15T16:56:46.825Z,34.84
2019-06-15T16:59:16.340Z,35.08
2019-06-15T17:01:45.836Z,34.99
2019-06-15T17:04:16.578Z,34.64
2019-06-15T17:06:46.191Z,34.20
2019-06-15T17:09:16.835Z,33.80
2019-06-15T17:11:47.139Z,33.61
2019-06-15T17:14:17.261Z,33.57
2019-06-15T17:16:46.832Z,33.66
2019-06-15T17:19:16.600Z,33.81
2019-06-15T17:21:46.695Z,33.82
2019-06-15T17:24:17.180Z,33.72
2019-06-15T17:26:46.974Z,33.59
2019-06-15T17:29:16.861Z,33.47
2019-06-15T17:31:46.845Z,33.36
2019-06-15T17:34:16.753Z,33.19
2019-06-15T17:36:47.221Z,32.99
2019-06-15T17:39:17.250Z,32.80
2019-06-15T17:41:47.384Z,32.62
2019-06-15T17:44:17.062Z,32.45
2019-06-15T17:46:46.697Z,32.29
2019-06-15T17:49:17.899Z,32.18
2019-06-15T17:51:47.465Z,32.06
2019-06-15T17:54:17.177Z,31.96
2019-06-15T17:56:46.793Z,31.93
2019-06-15T17:59:16.475Z,31.97
2019-06-15T18:01:46.982Z,32.06
2019-06-15T18:04:16.823Z,32.23
2019-06-15T18:06:46.843Z,32.43
2019-06-15T18:09:17.144Z,32.61
2019-06-15T18:11:46.884Z,32.80
2019-06-15T18:14:17.704Z,32.98
2019-06-15T18:16:47.386Z,33.13
2019-06-15T18:19:17.250Z,33.13
2019-06-15T18:21:46.993Z,33.06
2019-06-15T18:24:37.261Z,32.94
2019-06-15T18:27:09.468Z,32.71
2019-06-15T18:29:38.191Z,32.35
2019-06-15T18:32:07.850Z,31.92
2019-06-15T18:34:37.348Z,31.49
2019-06-15T18:37:07.703Z,31.04
2019-06-15T18:39:37.337Z,30.64
2019-06-15T18:42:07.714Z,30.34
2019-06-15T18:44:37.395Z,30.17
2019-06-15T18:47:07.224Z,30.07
2019-06-15T18:49:36.742Z,29.95
2019-06-15T18:52:06.299Z,29.77
2019-06-15T18:54:36.400Z,29.54
2019-06-15T18:57:07.456Z,29.26
2019-06-15T18:59:37.036Z,28.95
2019-06-15T19:02:06.793Z,28.62
2019-06-15T19:04:36.391Z,28.29
2019-06-15T19:07:06.665Z,28.02
2019-06-15T19:09:36.306Z,27.73
2019-06-15T19:12:07.043Z,27.43
2019-06-15T19:14:36.710Z,27.16
2019-06-15T19:17:06.247Z,26.87
2019-06-15T19:19:37.729Z,26.60
2019-06-15T19:22:07.119Z,26.32
2019-06-15T19:24:36.864Z,26.05
2019-06-15T19:27:08.312Z,25.80
2019-06-15T19:29:37.985Z,25.54
2019-06-15T19:32:08.157Z,25.29
2019-06-15T19:34:47.242Z,25.04
2019-06-15T19:37:09.084Z,24.80
2019-06-15T19:39:38.580Z,24.58
2019-06-15T19:42:08.183Z,24.37
2019-06-15T19:44:37.771Z,24.14
2019-06-15T19:47:07.342Z,23.92
2019-06-15T19:49:36.829Z,23.72
2019-06-15T19:52:06.702Z,23.52
2019-06-15T19:54:36.633Z,23.32
2019-06-15T19:57:06.874Z,23.17
2019-06-15T19:59:36.689Z,23.00
2019-06-15T20:02:10.059Z,22.85
2019-06-15T20:04:38.351Z,22.71
2019-06-15T20:07:07.904Z,22.58
2019-06-15T20:09:37.378Z,22.45
2019-06-15T20:12:17.962Z,22.33
2019-06-15T20:14:38.132Z,22.22
2019-06-15T20:17:07.619Z,22.10
2019-06-15T20:19:37.695Z,21.99
2019-06-15T20:22:07.414Z,21.88
2019-06-15T20:24:36.934Z,21.76
2019-06-15T20:27:09.715Z,21.67
2019-06-15T20:29:37.664Z,21.57
2019-06-15T20:32:07.138Z,21.48
2019-06-15T20:34:37.216Z,21.39
2019-06-15T20:37:06.971Z,21.29
2019-06-15T20:39:36.478Z,21.21
2019-06-15T20:42:07.885Z,21.13
2019-06-15T20:44:37.223Z,21.05
2019-06-15T20:47:06.810Z,21.00
2019-06-15T20:49:36.938Z,20.95
2019-06-15T20:52:07.052Z,20.90
2019-06-15T20:54:36.833Z,20.86
2019-06-15T20:57:06.603Z,20.81
2019-06-15T20:59:36.935Z,20.78
2019-06-15T21:02:07.119Z,20.75
2019-06-15T21:04:36.670Z,20.71
2019-06-15T21:07:06.754Z,20.68
2019-06-15T21:09:36.585Z,20.65
2019-06-15T21:12:07.889Z,20.60
2019-06-15T21:14:37.373Z,20.55
2019-06-15T21:17:06.981Z,20.50
2019-06-15T21:19:36.479Z,20.45
2019-06-15T21:22:06.553Z,20.40
2019-06-15T21:24:37.254Z,20.36
2019-06-15T21:27:06.985Z,20.31
2019-06-15T21:29:37.121Z,20.28
2019-06-15T21:32:06.716Z,20.24
2019-06-15T21:34:36.380Z,20.22
2019-06-15T21:37:06.704Z,20.19
2019-06-15T21:39:36.599Z,20.15
2019-06-15T21:42:06.541Z,20.12
2019-06-15T21:44:36.988Z,20.08
2019-06-15T21:47:07.026Z,20.06
2019-06-15T21:49:36.618Z,20.03
2019-06-15T21:52:07.119Z,20.01
2019-06-15T21:54:36.885Z,19.98
2019-06-15T21:57:07.101Z,19.94
2019-06-15T21:59:37.129Z,19.91
2019-06-15T22:02:07.250Z,19.87
2019-06-15T22:04:37.409Z,19.85
2019-06-15T22:07:06.962Z,19.81
2019-06-15T22:09:36.585Z,19.79
2019-06-15T22:12:06.897Z,19.76
2019-06-15T22:14:36.718Z,19.72
2019-06-15T22:17:06.720Z,19.71
2019-06-15T22:19:36.881Z,19.69
2019-06-15T22:22:27.294Z,19.66
2019-06-15T22:24:56.919Z,19.65
2019-06-15T22:27:26.410Z,19.62
2019-06-15T22:29:56.524Z,19.59
2019-06-15T22:32:27.031Z,19.58
2019-06-15T22:34:56.670Z,19.56
2019-06-15T22:37:26.381Z,19.54
2019-06-15T22:39:56.250Z,19.51
2019-06-15T22:42:25.939Z,19.51
2019-06-15T22:44:56.833Z,19.48
2019-06-15T22:47:27.044Z,19.47
2019-06-15T22:49:56.660Z,19.46
2019-06-15T22:52:26.501Z,19.45
2019-06-15T22:54:56.842Z,19.46
2019-06-15T22:57:26.437Z,19.45
2019-06-15T22:59:56.766Z,19.45
2019-06-15T23:02:26.445Z,19.45
2019-06-15T23:04:56.574Z,19.45
2019-06-15T23:07:26.154Z,19.44
2019-06-15T23:09:56.353Z,19.43
2019-06-15T23:12:25.899Z,19.42
2019-06-15T23:15:17.403Z,19.40
2019-06-15T23:17:46.941Z,19.40
2019-06-15T23:20:17.326Z,19.40
2019-06-15T23:22:46.976Z,19.38
2019-06-15T23:25:17.018Z,19.37
2019-06-15T23:27:47.076Z,19.35
2019-06-15T23:30:16.830Z,19.35
2019-06-15T23:32:47.089Z,19.34
2019-06-15T23:35:17.349Z,19.33
2019-06-15T23:37:46.837Z,19.32
2019-06-15T23:40:20.854Z,19.31
2019-06-15T23:42:51.635Z,19.30
2019-06-15T23:45:22.016Z,19.27
2019-06-15T23:47:51.801Z,19.24
2019-06-15T23:50:22.096Z,19.20
2019-06-15T23:52:51.764Z,19.18
2019-06-15T23:55:21.687Z,19.16
2019-06-15T23:57:51.176Z,19.11
